Time;durP1;ratioP1;P1;durP2;ratioP2;P2;SDS_P1;SDS_P2;PMS_P1;PMS_P2;Temp;Humidity;BMP_temperature;BMP_pressure;BME280_temperature;BME280_humidity;BME280_pressure;Samples;Min_cycle;Max_cycle;Signal;HPM_P1;HPM_P2
2022/07/06 00:01:57;;;;;;;4.55;2.08;;;17.70;99.90;;;;;;5075492;28;20212;-62
2022/07/06 00:04:24;;;;;;;3.28;1.80;;;17.70;99.90;;;;;;5075548;28;20208;-62
2022/07/06 00:06:52;;;;;;;3.90;1.92;;;17.70;99.90;;;;;;5076021;28;20205;-63
2022/07/06 00:09:20;;;;;;;3.65;1.92;;;17.80;99.90;;;;;;5075487;28;20732;-62
2022/07/06 00:11:47;;;;;;;5.90;1.70;;;17.80;99.90;;;;;;5075316;28;20672;-62
2022/07/06 00:14:14;;;;;;;2.47;1.90;;;17.80;99.90;;;;;;5075636;28;20216;-62
2022/07/06 00:16:41;;;;;;;3.03;1.83;;;17.80;99.90;;;;;;5075832;28;20224;-62
2022/07/06 00:19:07;;;;;;;3.78;1.80;;;17.70;99.90;;;;;;5075105;28;20707;-63
2022/07/06 00:21:34;;;;;;;2.42;1.58;;;17.70;99.90;;;;;;5075421;28;20213;-63
2022/07/06 00:24:01;;;;;;;4.05;1.70;;;17.70;99.90;;;;;;5075766;28;20227;-63
2022/07/06 00:26:29;;;;;;;2.95;2.13;;;17.70;99.90;;;;;;5075344;28;20216;-64
2022/07/06 00:28:56;;;;;;;4.05;1.83;;;17.70;99.90;;;;;;5075329;28;20225;-63
2022/07/06 00:31:22;;;;;;;2.08;1.88;;;17.70;99.90;;;;;;5075163;28;20212;-62
2022/07/06 00:33:49;;;;;;;3.58;1.80;;;17.60;99.90;;;;;;5075073;28;20691;-62
2022/07/06 00:36:16;;;;;;;2.60;2.10;;;17.60;99.90;;;;;;5075263;28;20228;-62
2022/07/06 00:38:43;;;;;;;4.05;2.10;;;17.50;99.90;;;;;;5074801;28;20233;-62
2022/07/06 00:41:09;;;;;;;2.90;1.95;;;17.50;99.90;;;;;;5075167;28;20201;-62
2022/07/06 00:43:56;;;;;;;5.03;2.20;;;17.50;99.90;;;;;;5075166;28;20205;-63
2022/07/06 00:46:27;;;;;;;3.70;2.00;;;17.50;99.90;;;;;;5075692;28;20201;-62
2022/07/06 00:48:54;;;;;;;4.55;2.00;;;17.50;99.90;;;;;;5075583;28;20229;-61
2022/07/06 00:51:22;;;;;;;5.43;2.35;;;17.60;99.90;;;;;;5074986;28;20282;-61
2022/07/06 00:53:50;;;;;;;2.13;1.70;;;17.50;99.90;;;;;;5075223;28;20209;-62
2022/07/06 00:56:17;;;;;;;1.75;1.40;;;17.50;99.90;;;;;;5074974;28;20644;-61
2022/07/06 00:58:44;;;;;;;3.20;1.80;;;17.50;99.90;;;;;;5074581;28;20220;-62
2022/07/06 01:01:12;;;;;;;3.25;2.10;;;17.40;99.90;;;;;;5074719;28;20258;-62
2022/07/06 01:03:39;;;;;;;2.30;1.90;;;17.40;99.90;;;;;;5074550;28;20204;-62
2022/07/06 01:06:05;;;;;;;2.90;2.22;;;17.30;99.90;;;;;;5074702;28;20201;-62
2022/07/06 01:08:33;;;;;;;2.42;1.88;;;17.30;99.90;;;;;;5074095;28;20221;-61
2022/07/06 01:11:00;;;;;;;4.07;1.70;;;17.20;99.90;;;;;;5074298;28;20205;-62
2022/07/06 01:13:28;;;;;;;2.80;1.80;;;17.10;99.90;;;;;;5074764;28;20211;-62
2022/07/06 01:15:54;;;;;;;4.30;1.90;;;17.10;99.90;;;;;;5074373;28;20229;-61
2022/07/06 01:18:22;;;;;;;2.28;1.98;;;17.00;99.90;;;;;;5073939;28;20236;-62
2022/07/06 01:20:50;;;;;;;3.22;2.10;;;17.00;99.90;;;;;;5073969;28;20212;-62
2022/07/06 01:23:17;;;;;;;1.90;1.70;;;16.90;99.90;;;;;;5074358;28;20212;-62
2022/07/06 01:25:44;;;;;;;4.37;1.80;;;16.90;99.90;;;;;;5073904;28;20220;-62
2022/07/06 01:28:10;;;;;;;2.90;2.10;;;16.80;99.90;;;;;;5074476;28;20229;-62
2022/07/06 01:30:37;;;;;;;3.90;1.97;;;16.80;99.90;;;;;;5074538;28;20660;-62
2022/07/06 01:33:04;;;;;;;3.57;1.83;;;16.80;99.90;;;;;;5074679;28;20209;-62
2022/07/06 01:35:34;;;;;;;3.87;1.80;;;16.80;99.90;;;;;;5074166;28;20204;-62
2022/07/06 01:38:02;;;;;;;6.10;2.00;;;16.70;99.90;;;;;;5074155;28;20327;-62
2022/07/06 01:40:29;;;;;;;4.33;1.80;;;16.60;99.90;;;;;;5073930;28;20212;-62
2022/07/06 01:42:55;;;;;;;3.30;1.93;;;16.60;99.90;;;;;;5074005;28;20577;-61
2022/07/06 01:45:22;;;;;;;2.80;1.97;;;16.60;99.90;;;;;;5074086;28;20204;-62
2022/07/06 01:47:49;;;;;;;3.43;2.07;;;16.60;99.90;;;;;;5073439;28;20263;-62
2022/07/06 01:50:15;;;;;;;3.20;2.17;;;16.50;99.90;;;;;;5073822;28;20205;-63
2022/07/06 01:52:42;;;;;;;3.50;1.90;;;16.50;99.90;;;;;;5073550;28;20274;-62
2022/07/06 01:55:10;;;;;;;2.03;1.80;;;16.50;99.90;;;;;;5074043;28;20205;-62
2022/07/06 01:57:37;;;;;;;3.70;1.97;;;16.50;99.90;;;;;;5073257;28;20240;-61
2022/07/06 02:00:06;;;;;;;2.28;2.00;;;16.50;99.90;;;;;;5073241;28;20209;-62
2022/07/06 02:02:33;;;;;;;3.13;1.95;;;16.50;99.90;;;;;;5073652;28;20291;-62
2022/07/06 02:05:00;;;;;;;5.00;1.80;;;16.40;99.90;;;;;;5073660;28;20558;-63
2022/07/06 02:07:26;;;;;;;4.43;1.87;;;16.30;99.90;;;;;;5073681;28;20201;-63
2022/07/06 02:09:53;;;;;;;4.55;1.80;;;16.30;99.90;;;;;;5073500;28;20217;-63
2022/07/06 02:12:21;;;;;;;3.72;1.83;;;16.30;99.90;;;;;;5073448;28;20201;-62
2022/07/06 02:14:48;;;;;;;3.37;1.97;;;16.30;99.90;;;;;;5072913;28;20216;-62
2022/07/06 02:17:15;;;;;;;4.13;2.20;;;16.30;99.90;;;;;;5073285;28;20321;-62
2022/07/06 02:19:41;;;;;;;2.33;2.00;;;16.30;99.90;;;;;;5073256;28;20225;-63
2022/07/06 02:22:08;;;;;;;2.80;2.03;;;16.30;99.90;;;;;;5073129;28;20212;-62
2022/07/06 02:24:35;;;;;;;3.20;2.10;;;16.30;99.90;;;;;;5073215;28;20213;-62
2022/07/06 02:27:01;;;;;;;3.07;2.20;;;16.30;99.90;;;;;;5073390;28;20205;-62
2022/07/06 02:29:29;;;;;;;4.75;2.35;;;16.40;99.90;;;;;;5073754;28;20250;-62
2022/07/06 02:31:56;;;;;;;4.32;2.50;;;16.40;99.90;;;;;;5073181;28;20208;-63
2022/07/06 02:34:23;;;;;;;4.70;3.33;;;16.40;99.90;;;;;;5073556;28;20208;-62
2022/07/06 02:36:49;;;;;;;5.23;4.00;;;16.40;99.90;;;;;;5073413;28;20316;-63
2022/07/06 02:39:16;;;;;;;3.70;3.00;;;16.40;99.90;;;;;;5073387;28;20232;-62
2022/07/06 02:41:43;;;;;;;4.87;3.10;;;16.40;99.90;;;;;;5073602;28;20205;-63
2022/07/06 02:44:09;;;;;;;5.00;3.20;;;16.50;99.90;;;;;;5073583;28;20231;-62
2022/07/06 02:46:37;;;;;;;4.47;2.47;;;16.40;99.90;;;;;;5073558;28;20201;-63
2022/07/06 02:49:04;;;;;;;6.43;2.47;;;16.40;99.90;;;;;;5074196;28;20314;-62
2022/07/06 02:51:31;;;;;;;2.93;2.10;;;16.40;99.90;;;;;;5073711;28;20262;-62
2022/07/06 02:53:57;;;;;;;5.83;2.70;;;16.40;99.90;;;;;;5073356;28;20212;-62
2022/07/06 02:56:24;;;;;;;4.53;2.40;;;16.40;99.90;;;;;;5073158;28;20605;-62
2022/07/06 02:58:51;;;;;;;3.43;2.60;;;16.40;99.90;;;;;;5073275;28;20232;-62
2022/07/06 03:01:18;;;;;;;5.30;2.50;;;16.40;99.90;;;;;;5073343;28;20208;-63
2022/07/06 03:03:46;;;;;;;6.53;2.80;;;16.40;99.90;;;;;;5073163;28;20333;-63
2022/07/06 03:06:13;;;;;;;3.97;2.60;;;16.40;99.90;;;;;;5074102;28;20204;-63
2022/07/06 03:08:39;;;;;;;5.03;2.27;;;16.40;99.90;;;;;;5073669;28;20225;-63
2022/07/06 03:11:06;;;;;;;2.63;2.10;;;16.40;99.90;;;;;;5074151;28;20208;-63
2022/07/06 03:13:33;;;;;;;5.10;2.43;;;16.40;99.90;;;;;;5074263;28;20202;-63
2022/07/06 03:15:59;;;;;;;10.20;3.37;;;16.40;99.90;;;;;;5073724;28;20208;-63
2022/07/06 03:18:26;;;;;;;4.70;2.67;;;16.40;99.90;;;;;;5073610;28;20577;-63
2022/07/06 03:20:55;;;;;;;4.37;2.77;;;16.40;99.90;;;;;;5073296;28;20664;-63
2022/07/06 03:23:22;;;;;;;3.97;2.80;;;16.40;99.90;;;;;;5074299;28;20211;-63
2022/07/06 03:25:48;;;;;;;7.93;2.60;;;16.40;99.90;;;;;;5076378;28;20201;-62
2022/07/06 03:28:15;;;;;;;5.53;3.27;;;16.40;99.90;;;;;;5077881;28;20229;-62
2022/07/06 03:30:42;;;;;;;3.80;2.30;;;16.40;99.90;;;;;;5077599;28;20208;-63
2022/07/06 03:33:08;;;;;;;6.30;4.40;;;16.40;99.90;;;;;;5078136;28;20205;-63
2022/07/06 03:35:35;;;;;;;3.47;2.87;;;16.40;99.90;;;;;;5078204;28;20216;-63
2022/07/06 03:38:03;;;;;;;7.30;2.77;;;16.40;99.90;;;;;;5077666;28;20578;-64
2022/07/06 03:40:30;;;;;;;6.03;3.23;;;16.40;99.90;;;;;;5077745;28;20212;-63
2022/07/06 03:42:57;;;;;;;5.33;3.77;;;16.40;99.90;;;;;;5077212;28;20201;-63
2022/07/06 03:45:23;;;;;;;5.90;4.20;;;16.40;99.90;;;;;;5076887;28;20205;-64
2022/07/06 03:47:50;;;;;;;5.60;3.50;;;16.40;99.90;;;;;;5077157;28;20573;-63
2022/07/06 03:50:17;;;;;;;3.87;2.90;;;16.40;99.90;;;;;;5076787;28;20215;-64
2022/07/06 03:52:44;;;;;;;7.57;5.23;;;16.40;99.90;;;;;;5076834;28;20204;-63
2022/07/06 03:55:12;;;;;;;3.30;2.63;;;16.40;99.90;;;;;;5076658;28;20551;-63
2022/07/06 03:57:40;;;;;;;4.60;2.83;;;16.50;99.90;;;;;;5075859;28;20225;-63
2022/07/06 04:00:08;;;;;;;4.37;3.20;;;16.50;99.90;;;;;;5075864;28;20625;-63
2022/07/06 04:02:36;;;;;;;7.23;4.97;;;16.50;99.90;;;;;;5075886;28;20232;-63
2022/07/06 04:05:03;;;;;;;6.03;4.57;;;16.50;99.90;;;;;;5075997;28;20237;-64
2022/07/06 04:07:30;;;;;;;5.23;3.30;;;16.60;99.90;;;;;;5075897;28;20201;-63
2022/07/06 04:09:57;;;;;;;3.93;2.50;;;16.60;99.90;;;;;;5075436;28;20684;-63
2022/07/06 04:12:25;;;;;;;3.60;2.60;;;16.70;99.90;;;;;;5075200;28;20201;-63
2022/07/06 04:14:51;;;;;;;9.03;3.30;;;16.70;99.90;;;;;;5075621;28;20209;-63
2022/07/06 04:20:03;;;;;;;5.43;2.83;;;16.90;99.90;;;;;;5075935;28;20289;-63
2022/07/06 04:22:30;;;;;;;4.32;2.67;;;17.00;99.90;;;;;;5075406;28;20695;-62
2022/07/06 04:24:56;;;;;;;5.27;2.90;;;17.10;99.90;;;;;;5076345;28;20205;-64
2022/07/06 04:27:24;;;;;;;4.40;2.73;;;17.10;99.90;;;;;;5075722;28;20213;-64
2022/07/06 04:29:51;;;;;;;4.60;3.20;;;17.20;99.90;;;;;;5075822;28;20221;-64
2022/07/06 04:32:18;;;;;;;7.25;3.15;;;17.20;99.90;;;;;;5075833;28;20205;-64
2022/07/06 04:34:44;;;;;;;3.30;2.72;;;17.30;99.90;;;;;;5075317;28;20615;-63
2022/07/06 04:37:11;;;;;;;5.20;2.50;;;17.40;99.90;;;;;;5074338;28;20282;-63
2022/07/06 04:39:38;;;;;;;4.85;2.55;;;17.40;99.90;;;;;;5075091;28;20232;-63
2022/07/06 04:42:05;;;;;;;5.72;2.72;;;17.50;99.90;;;;;;5074779;28;20209;-63
2022/07/06 04:44:33;;;;;;;6.93;3.00;;;17.60;99.90;;;;;;5074999;28;20267;-63
2022/07/06 04:46:59;;;;;;;4.75;2.90;;;17.60;99.90;;;;;;5074718;28;20258;-63
2022/07/06 04:49:26;;;;;;;6.00;2.88;;;17.70;99.90;;;;;;5074513;28;20228;-63
2022/07/06 04:51:53;;;;;;;5.00;2.83;;;17.90;99.90;;;;;;5074353;28;20212;-63
2022/07/06 04:54:19;;;;;;;3.35;2.50;;;18.10;99.90;;;;;;5074556;28;20212;-63
2022/07/06 04:56:47;;;;;;;5.55;2.78;;;18.30;99.90;;;;;;5074420;28;20717;-63
2022/07/06 04:59:14;;;;;;;4.05;2.70;;;18.70;99.90;;;;;;5074322;28;20604;-63
2022/07/06 05:01:42;;;;;;;5.97;2.58;;;19.50;99.90;;;;;;5074345;28;20209;-63
2022/07/06 05:04:10;;;;;;;4.75;2.47;;;20.90;99.90;;;;;;5074243;28;20334;-64
2022/07/06 05:06:36;;;;;;;4.50;2.33;;;22.30;99.90;;;;;;5074165;28;20238;-62
2022/07/06 05:09:03;;;;;;;6.32;2.75;;;23.90;99.90;;;;;;5074538;28;20696;-62
2022/07/06 05:11:30;;;;;;;3.97;2.35;;;25.20;99.90;;;;;;5074553;28;20672;-62
2022/07/06 05:13:57;;;;;;;6.60;2.70;;;26.30;96.10;;;;;;5074586;28;20293;-64
2022/07/06 05:16:24;;;;;;;5.10;2.08;;;27.40;92.40;;;;;;5074444;28;20209;-64
2022/07/06 05:18:52;;;;;;;8.15;2.25;;;28.20;90.30;;;;;;5074095;28;20272;-62
2022/07/06 05:21:19;;;;;;;4.78;2.03;;;29.20;84.20;;;;;;5074189;28;20258;-62
2022/07/06 05:23:45;;;;;;;5.57;2.15;;;30.00;77.60;;;;;;5075194;28;20215;-62
2022/07/06 05:26:12;;;;;;;6.55;1.85;;;30.80;73.60;;;;;;5076011;28;20261;-63
2022/07/06 05:28:39;;;;;;;5.15;2.00;;;31.50;70.20;;;;;;5073575;28;20600;-63
2022/07/06 05:31:06;;;;;;;4.15;2.00;;;31.90;66.80;;;;;;5073003;28;20219;-63
2022/07/06 05:33:32;;;;;;;3.97;1.90;;;32.50;64.80;;;;;;5073298;28;20205;-63
2022/07/06 05:36:00;;;;;;;6.32;2.03;;;33.20;62.10;;;;;;5073452;28;20208;-63
2022/07/06 05:38:27;;;;;;;5.65;2.10;;;33.80;59.60;;;;;;5073086;28;20735;-63
2022/07/06 05:40:54;;;;;;;7.40;2.13;;;32.60;59.30;;;;;;5072930;28;20623;-62
2022/07/06 05:43:21;;;;;;;3.53;1.80;;;31.80;61.80;;;;;;5073137;28;20205;-63
2022/07/06 05:45:47;;;;;;;5.85;2.20;;;31.50;61.50;;;;;;5072992;28;20208;-62
2022/07/06 05:50:58;;;;;;;3.33;2.00;;;30.80;64.10;;;;;;5072701;28;20212;-63
2022/07/06 05:53:26;;;;;;;5.53;1.85;;;31.70;61.70;;;;;;5073143;28;20246;-63
2022/07/06 05:55:53;;;;;;;5.97;2.38;;;32.40;60.50;;;;;;5073025;28;20208;-62
2022/07/06 05:58:20;;;;;;;9.85;2.40;;;33.30;58.40;;;;;;5072753;28;20236;-63
2022/07/06 06:00:47;;;;;;;5.45;1.90;;;33.80;56.90;;;;;;5072508;28;20594;-63
2022/07/06 06:03:13;;;;;;;2.90;1.80;;;33.50;55.60;;;;;;5073627;28;20212;-63
2022/07/06 06:05:40;;;;;;;4.88;2.13;;;33.40;55.50;;;;;;5073839;28;20201;-63
2022/07/06 06:08:07;;;;;;;5.00;1.90;;;33.30;55.00;;;;;;5073072;28;20741;-64
2022/07/06 06:10:35;;;;;;;5.07;1.92;;;33.10;55.80;;;;;;5072926;28;20567;-63
2022/07/06 06:13:02;;;;;;;3.25;1.70;;;33.00;55.70;;;;;;5072625;28;20209;-63
2022/07/06 06:15:29;;;;;;;3.88;1.67;;;33.10;55.90;;;;;;5072476;28;20552;-65
2022/07/06 06:17:55;;;;;;;3.75;2.00;;;33.40;56.00;;;;;;5072516;28;20302;-64
2022/07/06 06:20:22;;;;;;;5.65;1.70;;;34.30;53.40;;;;;;5074131;28;20295;-64
2022/07/06 06:22:50;;;;;;;7.53;1.80;;;34.50;52.80;;;;;;5074364;28;20200;-64
2022/07/06 06:25:19;;;;;;;4.38;1.95;;;34.30;53.30;;;;;;5074374;28;20205;-63
2022/07/06 06:27:47;;;;;;;3.17;1.90;;;33.90;53.30;;;;;;5074522;28;20289;-63
2022/07/06 06:30:15;;;;;;;7.30;1.95;;;33.20;54.40;;;;;;5074279;28;20231;-63
2022/07/06 06:32:41;;;;;;;4.80;1.85;;;32.50;55.70;;;;;;5073907;28;20258;-63
2022/07/06 06:35:09;;;;;;;2.17;1.70;;;31.50;56.80;;;;;;5073965;28;20334;-63
2022/07/06 06:37:36;;;;;;;5.95;2.10;;;30.40;58.10;;;;;;5074369;28;20221;-63
2022/07/06 06:40:03;;;;;;;5.40;1.90;;;29.50;59.60;;;;;;5073768;28;20205;-63
2022/07/06 06:42:30;;;;;;;3.50;2.10;;;29.30;61.20;;;;;;5073129;28;20208;-63
2022/07/06 06:44:58;;;;;;;4.63;2.22;;;30.20;59.40;;;;;;5073120;28;20205;-64
2022/07/06 06:47:25;;;;;;;3.38;1.90;;;31.10;57.90;;;;;;5073694;28;20201;-63
2022/07/06 06:49:51;;;;;;;5.00;2.10;;;32.00;57.00;;;;;;5073318;28;20225;-63
2022/07/06 06:52:18;;;;;;;3.33;2.15;;;32.60;54.80;;;;;;5072733;28;20208;-64
2022/07/06 06:54:45;;;;;;;4.95;1.80;;;31.50;56.10;;;;;;5072724;28;20201;-63
2022/07/06 06:57:12;;;;;;;6.18;1.70;;;29.80;58.80;;;;;;5072663;28;20212;-63
2022/07/06 06:59:38;;;;;;;3.75;1.73;;;29.30;60.80;;;;;;5073484;28;20224;-63
2022/07/06 07:02:07;;;;;;;4.22;1.77;;;29.20;60.50;;;;;;5076510;28;20608;-64
2022/07/06 07:04:33;;;;;;;3.10;1.80;;;29.30;60.90;;;;;;5077506;28;20205;-64
2022/07/06 07:07:00;;;;;;;4.07;2.10;;;29.50;60.00;;;;;;5077195;28;20216;-63
2022/07/06 07:09:27;;;;;;;3.58;1.90;;;29.90;60.30;;;;;;5076786;28;20236;-63
2022/07/06 07:11:54;;;;;;;3.47;2.03;;;30.50;59.20;;;;;;5076827;28;20212;-63
2022/07/06 07:14:21;;;;;;;5.15;2.00;;;30.60;58.70;;;;;;5076766;28;20205;-63
2022/07/06 07:16:48;;;;;;;4.78;2.30;;;30.60;58.70;;;;;;5076601;28;20589;-64
2022/07/06 07:19:16;;;;;;;4.78;2.58;;;31.30;57.40;;;;;;5076247;28;20241;-63
2022/07/06 07:21:43;;;;;;;3.83;1.80;;;32.10;56.10;;;;;;5076503;28;20212;-64
2022/07/06 07:24:09;;;;;;;3.60;1.60;;;33.40;54.10;;;;;;5076355;28;20563;-64
2022/07/06 07:26:36;;;;;;;6.05;1.95;;;34.40;52.10;;;;;;5076563;28;20205;-64
2022/07/06 07:29:03;;;;;;;2.83;1.77;;;34.80;51.00;;;;;;5076110;28;20617;-64
2022/07/06 07:31:30;;;;;;;5.32;1.83;;;35.50;50.70;;;;;;5076235;28;20208;-63
2022/07/06 07:33:58;;;;;;;3.60;1.70;;;36.90;47.70;;;;;;5076614;28;20205;-64
2022/07/06 07:36:26;;;;;;;3.67;1.70;;;37.80;45.10;;;;;;5076250;28;20208;-63
2022/07/06 07:38:53;;;;;;;3.30;1.70;;;37.00;46.30;;;;;;5075714;28;20249;-63
2022/07/06 07:41:20;;;;;;;5.15;1.80;;;35.40;48.20;;;;;;5075752;28;20208;-64
2022/07/06 07:43:47;;;;;;;4.38;1.60;;;34.40;49.70;;;;;;5076276;28;20215;-61
2022/07/06 07:46:13;;;;;;;5.90;1.60;;;34.90;48.40;;;;;;5075930;28;20215;-59
2022/07/06 07:48:40;;;;;;;6.57;1.83;;;34.90;48.30;;;;;;5076712;28;20221;-61
2022/07/06 07:51:07;;;;;;;3.85;1.77;;;34.10;49.00;;;;;;5075374;28;20250;-59
2022/07/06 07:53:35;;;;;;;7.10;2.05;;;33.50;50.60;;;;;;5076265;28;20208;-59
2022/07/06 07:56:02;;;;;;;9.35;1.83;;;33.80;49.60;;;;;;5076676;28;20225;-59
2022/07/06 07:58:28;;;;;;;3.63;1.90;;;33.30;50.10;;;;;;5076862;28;20224;-60
2022/07/06 08:00:55;;;;;;;3.58;1.70;;;33.40;50.60;;;;;;5076138;28;20231;-59
2022/07/06 08:03:22;;;;;;;5.25;1.63;;;34.10;49.30;;;;;;5076179;28;20677;-59
2022/07/06 08:05:49;;;;;;;2.53;1.73;;;34.70;48.70;;;;;;5076729;28;20681;-59
2022/07/06 08:08:16;;;;;;;3.30;1.73;;;35.60;47.80;;;;;;5077525;28;20228;-59
2022/07/06 08:10:44;;;;;;;3.30;1.75;;;36.10;47.30;;;;;;5078696;28;20265;-59
2022/07/06 08:13:11;;;;;;;4.10;1.80;;;36.70;45.70;;;;;;5077534;28;20291;-59
2022/07/06 08:15:38;;;;;;;2.60;1.80;;;37.10;45.40;;;;;;5078289;28;20584;-59
2022/07/06 08:18:05;;;;;;;3.80;1.75;;;37.30;45.50;;;;;;5078284;28;20232;-59
2022/07/06 08:20:31;;;;;;;2.75;1.50;;;37.50;44.40;;;;;;5077968;28;20204;-59
2022/07/06 08:22:58;;;;;;;6.30;1.60;;;35.80;46.40;;;;;;5077682;28;20205;-59
2022/07/06 08:25:25;;;;;;;4.82;1.80;;;35.00;47.90;;;;;;5077731;28;20201;-59
2022/07/06 08:27:53;;;;;;;5.80;2.10;;;34.10;50.00;;;;;;5077497;28;20220;-59
2022/07/06 08:30:20;;;;;;;3.45;1.45;;;34.30;48.80;;;;;;5077650;28;20208;-59
2022/07/06 08:32:47;;;;;;;5.30;1.40;;;35.30;48.00;;;;;;5077159;28;20205;-59
2022/07/06 08:35:14;;;;;;;3.72;1.65;;;36.00;46.60;;;;;;5078022;28;20614;-59
2022/07/06 08:37:40;;;;;;;7.25;1.92;;;36.90;45.80;;;;;;5076386;28;20727;-60
2022/07/06 08:40:08;;;;;;;4.43;1.70;;;37.20;45.00;;;;;;5077374;28;20212;-59
2022/07/06 08:42:36;;;;;;;4.38;1.75;;;36.20;44.70;;;;;;5076752;28;20212;-59
2022/07/06 08:45:06;;;;;;;2.53;1.45;;;34.60;46.80;;;;;;5076668;28;20205;-59
2022/07/06 08:47:36;;;;;;;6.82;1.90;;;35.20;46.80;;;;;;5077122;28;20201;-60
2022/07/06 08:50:04;;;;;;;4.95;1.75;;;35.80;46.40;;;;;;5076915;28;20204;-60
2022/07/06 08:52:31;;;;;;;4.78;1.85;;;35.30;47.10;;;;;;5077008;28;20724;-59
2022/07/06 08:54:58;;;;;;;2.80;1.70;;;34.90;47.30;;;;;;5076557;28;20204;-59
2022/07/06 08:57:26;;;;;;;5.70;1.90;;;32.80;50.30;;;;;;5076094;28;20207;-60
2022/07/06 08:59:52;;;;;;;5.20;1.75;;;30.00;55.10;;;;;;5074408;28;20240;-60
2022/07/06 09:02:26;;;;;;;3.13;1.73;;;28.60;58.00;;;;;;5074163;28;20209;-60
2022/07/06 09:04:56;;;;;;;3.83;1.90;;;28.10;59.10;;;;;;5074463;28;20243;-60
2022/07/06 09:07:23;;;;;;;2.85;2.30;;;27.80;59.90;;;;;;5074337;28;20220;-60
2022/07/06 09:09:51;;;;;;;5.45;2.45;;;27.60;60.90;;;;;;5074607;28;20233;-61
2022/07/06 09:12:18;;;;;;;3.85;2.05;;;27.40;60.20;;;;;;5074052;28;20213;-60
2022/07/06 09:14:45;;;;;;;7.40;4.15;;;27.00;60.20;;;;;;5074500;28;20253;-60
2022/07/06 09:17:13;;;;;;;4.78;2.08;;;26.70;60.90;;;;;;5074158;28;20235;-60
2022/07/06 09:19:41;;;;;;;4.50;2.05;;;26.60;63.80;;;;;;5074278;28;20237;-60
2022/07/06 09:22:07;;;;;;;4.00;2.00;;;26.60;64.40;;;;;;5073811;28;20205;-60
2022/07/06 09:24:42;;;;;;;8.90;2.28;;;26.70;64.60;;;;;;5073871;28;20201;-60
2022/07/06 09:27:16;;;;;;;5.40;2.05;;;26.80;64.70;;;;;;5074281;28;20193;-60
2022/07/06 09:29:45;;;;;;;7.13;2.88;;;26.90;64.40;;;;;;5073883;28;20224;-60
2022/07/06 09:32:12;;;;;;;9.55;2.72;;;26.90;64.30;;;;;;5073726;28;20204;-60
2022/07/06 09:34:45;;;;;;;9.13;2.35;;;26.80;63.70;;;;;;5074027;28;20254;-60
2022/07/06 09:37:11;;;;;;;3.38;2.22;;;26.70;63.60;;;;;;5073853;28;20757;-60
2022/07/06 09:39:39;;;;;;;4.78;1.98;;;26.70;63.30;;;;;;5074214;28;20236;-60
2022/07/06 09:42:08;;;;;;;5.10;2.40;;;26.70;64.20;;;;;;5073198;28;20208;-60
2022/07/06 09:44:36;;;;;;;4.60;2.28;;;26.70;64.90;;;;;;5073910;28;20201;-60
2022/07/06 09:47:06;;;;;;;7.90;2.13;;;26.60;65.00;;;;;;5073535;28;20243;-60
2022/07/06 09:49:33;;;;;;;6.88;2.63;;;26.70;65.80;;;;;;5074081;28;20286;-60
2022/07/06 09:52:03;;;;;;;12.85;2.33;;;27.00;66.10;;;;;;5073313;28;20262;-60
2022/07/06 09:54:30;;;;;;;4.22;2.15;;;27.00;64.20;;;;;;5073375;28;20209;-60
2022/07/06 09:56:59;;;;;;;4.95;2.35;;;26.90;63.70;;;;;;5074398;28;20209;-60
2022/07/06 09:59:27;;;;;;;6.72;2.28;;;27.10;63.30;;;;;;5073869;28;20233;-60
2022/07/06 10:01:56;;;;;;;3.40;1.95;;;27.20;63.60;;;;;;5073297;28;20210;-61
2022/07/06 10:04:24;;;;;;;6.45;2.10;;;27.20;64.20;;;;;;5073169;28;20303;-60
2022/07/06 10:06:51;;;;;;;6.20;2.50;;;27.20;64.90;;;;;;5073441;28;20211;-60
2022/07/06 10:09:20;;;;;;;3.60;2.08;;;27.40;64.00;;;;;;5072883;28;20603;-60
2022/07/06 10:11:50;;;;;;;5.22;2.25;;;27.20;64.30;;;;;;5073053;28;20278;-60
2022/07/06 10:14:20;;;;;;;4.00;2.13;;;27.30;63.70;;;;;;5073042;28;20209;-60
2022/07/06 10:16:48;;;;;;;5.15;3.10;;;27.40;63.20;;;;;;5072949;28;20205;-59
2022/07/06 10:19:16;;;;;;;3.55;2.15;;;27.40;62.50;;;;;;5072962;28;20229;-59
2022/07/06 10:21:43;;;;;;;11.18;5.45;;;27.30;63.30;;;;;;5072736;28;20208;-59
2022/07/06 10:24:10;;;;;;;4.68;2.55;;;27.40;63.60;;;;;;5072967;28;20205;-60
2022/07/06 10:26:39;;;;;;;5.32;2.38;;;27.40;62.50;;;;;;5072765;28;20207;-60
2022/07/06 10:29:07;;;;;;;4.45;1.90;;;27.40;63.30;;;;;;5072634;28;20727;-60
2022/07/06 10:31:36;;;;;;;8.27;2.40;;;27.10;64.00;;;;;;5072993;28;20205;-60
2022/07/06 10:34:07;;;;;;;5.47;1.98;;;27.00;64.10;;;;;;5076410;28;20209;-60
2022/07/06 10:36:38;;;;;;;4.40;2.10;;;26.90;63.80;;;;;;5077038;28;20201;-60
2022/07/06 10:41:02;;;;;;;4.70;2.60;;;26.80;64.50;;;;;;5077637;28;20224;-60
2022/07/06 10:41:53;;;;;;;5.45;1.85;;;26.60;64.40;;;;;;5077058;28;20258;-59
2022/07/06 10:44:22;;;;;;;10.45;2.05;;;26.30;65.80;;;;;;5077522;28;20303;-60
2022/07/06 10:46:53;;;;;;;2.83;1.80;;;26.40;66.50;;;;;;5076019;28;20566;-61
2022/07/06 10:49:22;;;;;;;6.00;1.92;;;26.70;66.50;;;;;;5075552;28;20225;-60
2022/07/06 10:51:50;;;;;;;6.72;2.35;;;26.70;66.60;;;;;;5075285;28;20659;-62
2022/07/06 10:54:18;;;;;;;6.35;2.30;;;26.70;65.20;;;;;;5072433;28;20239;-65
2022/07/06 10:56:46;;;;;;;3.90;2.05;;;26.40;66.20;;;;;;5076996;28;20295;-60
2022/07/06 10:59:15;;;;;;;5.55;2.17;;;26.20;66.90;;;;;;5077134;28;20311;-63
2022/07/06 11:02:02;;;;;;;5.97;2.00;;;26.20;67.70;;;;;;5077230;28;20213;-63
2022/07/06 11:04:32;;;;;;;3.10;2.08;;;26.30;67.00;;;;;;5076021;28;20207;-63
2022/07/06 11:07:08;;;;;;;3.65;1.90;;;26.30;65.40;;;;;;5077128;28;20236;-63
2022/07/06 11:09:37;;;;;;;3.50;1.88;;;26.40;64.90;;;;;;5071959;28;20248;-61
2022/07/06 11:12:13;;;;;;;3.58;1.80;;;26.30;66.00;;;;;;5075866;28;20236;-61
2022/07/06 11:14:41;;;;;;;7.50;1.98;;;26.20;66.00;;;;;;5075284;28;20745;-61
2022/07/06 11:17:11;;;;;;;3.42;1.77;;;26.30;65.10;;;;;;5072932;28;20583;-60
2022/07/06 11:19:38;;;;;;;5.35;2.13;;;26.20;66.40;;;;;;5074087;28;20225;-61
2022/07/06 11:22:09;;;;;;;7.72;2.58;;;26.20;66.70;;;;;;5072763;28;20204;-61
2022/07/06 11:24:38;;;;;;;6.05;2.33;;;26.40;66.10;;;;;;5072603;28;20209;-62
2022/07/06 11:27:06;;;;;;;6.88;1.90;;;26.70;65.20;;;;;;5073002;28;20617;-61
2022/07/06 11:29:36;;;;;;;5.32;2.00;;;27.10;64.30;;;;;;5073127;28;20760;-61
2022/07/06 11:32:08;;;;;;;5.07;2.00;;;27.40;63.20;;;;;;5073059;28;20272;-61
2022/07/06 11:34:37;;;;;;;3.75;1.80;;;27.70;63.60;;;;;;5073646;28;20201;-61
2022/07/06 11:37:07;;;;;;;5.53;1.88;;;27.90;64.20;;;;;;5072304;28;20272;-62
2022/07/06 11:39:35;;;;;;;6.72;2.53;;;28.00;63.50;;;;;;5072167;28;20244;-62
2022/07/06 11:42:04;;;;;;;2.92;1.90;;;28.20;62.70;;;;;;5072488;28;20300;-62
2022/07/06 11:44:31;;;;;;;6.47;2.03;;;28.40;61.70;;;;;;5072740;28;20987;-62
2022/07/06 11:47:00;;;;;;;6.95;2.22;;;28.70;61.40;;;;;;5074282;28;20205;-61
2022/07/06 11:49:29;;;;;;;4.72;1.88;;;28.90;61.20;;;;;;5075396;28;20225;-61
2022/07/06 11:51:55;;;;;;;10.75;1.98;;;28.90;60.40;;;;;;5075115;28;20209;-61
2022/07/06 11:54:23;;;;;;;11.40;7.20;;;28.70;61.20;;;;;;5074984;28;20266;-61
2022/07/06 11:56:53;;;;;;;4.68;2.78;;;28.60;61.70;;;;;;5074979;28;20204;-61
2022/07/06 11:59:22;;;;;;;7.32;3.15;;;28.50;62.10;;;;;;5074758;28;20236;-61
2022/07/06 12:01:49;;;;;;;4.22;1.90;;;28.50;61.20;;;;;;5074387;28;20229;-61
2022/07/06 12:04:16;;;;;;;5.97;2.08;;;28.50;61.30;;;;;;5074176;28;20296;-61
2022/07/06 12:06:46;;;;;;;3.35;1.50;;;28.30;61.00;;;;;;5075642;28;20213;-62
2022/07/06 12:09:14;;;;;;;2.67;1.75;;;28.00;61.10;;;;;;5075845;28;20704;-62
2022/07/06 12:11:41;;;;;;;7.03;2.15;;;27.50;62.80;;;;;;5075393;28;20205;-62
2022/07/06 12:14:15;;;;;;;4.13;2.13;;;27.10;64.30;;;;;;5076396;28;20236;-62
2022/07/06 12:16:42;;;;;;;7.00;2.08;;;27.00;64.60;;;;;;5076285;28;20212;-62
2022/07/06 12:19:11;;;;;;;6.43;2.10;;;27.00;64.20;;;;;;5076314;28;20229;-63
2022/07/06 12:21:45;;;;;;;5.80;1.98;;;27.10;65.30;;;;;;5076181;28;20227;-63
2022/07/06 12:24:18;;;;;;;8.90;2.20;;;27.10;65.50;;;;;;5075835;28;20209;-62
2022/07/06 12:26:44;;;;;;;7.13;2.20;;;26.90;66.00;;;;;;5076372;28;20209;-62
2022/07/06 12:29:13;;;;;;;4.90;2.00;;;27.00;65.30;;;;;;5076578;28;20265;-63
2022/07/06 12:31:41;;;;;;;7.57;1.83;;;27.20;64.40;;;;;;5075361;28;20282;-63
2022/07/06 12:34:14;;;;;;;4.72;1.88;;;27.40;64.20;;;;;;5075894;28;20205;-62
2022/07/06 12:36:45;;;;;;;2.50;2.00;;;27.50;64.20;;;;;;5076629;28;20201;-62
2022/07/06 12:39:12;;;;;;;6.53;2.20;;;27.50;64.50;;;;;;5075503;28;20279;-62
2022/07/06 12:41:45;;;;;;;7.68;2.20;;;27.60;63.40;;;;;;5076068;28;20243;-63
2022/07/06 12:44:12;;;;;;;10.45;2.47;;;27.80;63.30;;;;;;5076377;28;20208;-63
2022/07/06 12:46:41;;;;;;;6.07;2.38;;;27.80;63.20;;;;;;5076454;28;20208;-63
2022/07/06 12:49:19;;;;;;;7.57;2.22;;;27.80;63.70;;;;;;5076371;28;20712;-62
2022/07/06 12:51:58;;;;;;;5.38;2.42;;;27.90;63.30;;;;;;5076277;28;20236;-63
2022/07/06 12:54:27;;;;;;;8.48;2.13;;;28.30;62.90;;;;;;5075914;28;20622;-63